Search for airport 
image banner adimage banner ad
image banner ad

DAUZ - Zarzaitine / In Amenas

Located in Zarzaitine, Algeria

ICAO - DAUZ, IATA - IAM

Data provided by Airmate  

General information

Coordinates: N28°3'5" E9°38'34"
Elevation is 1843 feet MSL.
 
View others Airports in Illizi Province

Operational data

Open for public use
Current time UTC:
Current local time:
Weather
METAR: DAUZ 302000Z 08010KT CAVOK 19/04 Q1024
TAF: TAF DAUZ 301700Z 3018/3118 08012KT CAVOK PROB30 TEMPO 3108/3111 11022KT 4000 DRSA
View NOTAMs / SUP AIP / TFR affecting this airport [VIEW]
Communications frequencies: [VIEW]

Runways:

RWY identifierQFULength (ft)Width (ft)SurfaceLDA (ft)
0547°9843148ASP
23227°9843148
14145°721898
32325°721898

Airport contact information

Address: Zarzaitine Algeria

Satellite view of DAUZ